Agarpara, India

4:29 AM IST on December 05, 2016 (GMT +0530)
Netaji Subhash Chandra Bose International | | Change Station

Elev 20 ft 22.65 °N, 88.44 °E | Updated 29 minutes ago

Mist
Mist
64 °F
Feels Like 64 °F
N
6
Wind Variable Wind from North

Today
High -- | Low -- °F
--% Chance of Precip.
Yesterday
High -- | Low -- °F
Precip. -- in
Pressure 29.95 in
Visibility 1.0 miles
Clouds
Dew Point 63 °F
Humidity 94%
Rainfall 0.00 in
Snow Depth Not available.
6:02 AM 4:51 PM
Waxing Crescent, 26% visible
METAR VECC 042230Z 01005KT 1600 BR NSC 18/17 Q1014 BECMG 1500 BR
Pressure 29.95 in
Visibility 1.0 miles
Clouds
Dew Point 63 °F
Humidity 94%
Rainfall 0.00 in
Snow Depth Not available.
6:02 AM 4:51 PM
Waxing Crescent, 26% visible
METAR VECC 042230Z 01005KT 1600 BR NSC 18/17 Q1014 BECMG 1500 BR

10-Day Weather Forecast

No radar image for this location.
×

Almanac

Astronomy

Dec. 05, 2016 Rise Set
Actual Time
Civil Twilight
Nautical Twilight
Astronomical Twilight
Moon
Length of Visible Light
Length of Day
Tomorrow will be .
, % of the Moon is Illuminated

Today's Extremes

Country Highs Country Lows

Community

WunderPhotos

Upload Photos

1,955,686 photos uploaded!

WunderBlog® & News

Nearby

Air Quality

  Air Quality AQ Index Pollutant
Not available.

Snow Depth

Station Depth Elevation

Earthquake Activity

City Distance Mag. Time & Date
Minimum magnitude displayed is 2.5.

Coastal Water Temperatures

Place Temperature

Stations

Nearby Weather Stations

Station Location Temp. Windchill Dew Point Humidity Wind Precip. Elev Updated Type